createdAt,value
2022-12-08T00:00:24.239Z,86.69
2022-12-08T00:01:24.227Z,86.69
2022-12-08T00:02:24.239Z,86.80
2022-12-08T00:03:24.275Z,86.49
2022-12-08T00:04:24.093Z,86.18
2022-12-08T00:05:24.156Z,86.18
2022-12-08T00:06:24.170Z,86.07
2022-12-08T00:07:24.068Z,86.38
2022-12-08T00:08:24.262Z,86.38
2022-12-08T00:09:24.168Z,86.49
2022-12-08T00:10:48.442Z,86.28
2022-12-08T00:11:24.113Z,85.97
2022-12-08T00:12:23.966Z,85.86
2022-12-08T00:13:24.101Z,85.86
2022-12-08T00:14:23.914Z,85.97
2022-12-08T00:15:24.450Z,86.07
2022-12-08T00:16:23.954Z,85.76
2022-12-08T00:17:24.139Z,85.76
2022-12-08T00:18:23.889Z,85.65
2022-12-08T00:19:23.945Z,86.00
2022-12-08T00:20:23.896Z,86.74
2022-12-08T00:21:23.948Z,86.43
2022-12-08T00:22:23.857Z,86.43
2022-12-08T00:23:23.999Z,86.63
2022-12-08T00:24:23.833Z,86.53
2022-12-08T00:25:23.857Z,86.43
2022-12-08T00:26:23.814Z,86.21
2022-12-08T00:27:23.929Z,86.43
2022-12-08T00:28:23.782Z,86.63
2022-12-08T00:29:23.800Z,86.74
2022-12-08T00:30:23.759Z,86.53
2022-12-08T00:31:23.923Z,86.32
2022-12-08T00:32:23.874Z,85.90
2022-12-08T00:33:23.701Z,85.52
2022-12-08T00:34:23.848Z,85.94
2022-12-08T00:35:23.685Z,86.36
2022-12-08T00:36:23.767Z,86.51
2022-12-08T00:37:23.675Z,86.61
2022-12-08T00:38:23.783Z,87.07
2022-12-08T00:39:23.619Z,87.48
2022-12-08T00:40:23.681Z,87.80
2022-12-08T00:41:23.595Z,88.01
2022-12-08T00:42:23.699Z,88.32
2022-12-08T00:43:23.602Z,88.42
2022-12-08T00:44:23.718Z,88.42
2022-12-08T00:45:23.554Z,88.64
2022-12-08T00:46:23.712Z,88.67
2022-12-08T00:47:24.975Z,88.88
2022-12-08T00:48:23.689Z,88.46
2022-12-08T00:49:23.503Z,88.21
2022-12-08T00:50:23.766Z,87.90
2022-12-08T00:51:23.465Z,87.84
2022-12-08T00:52:23.572Z,87.90
2022-12-08T00:53:23.595Z,87.59
2022-12-08T00:54:23.507Z,87.42
2022-12-08T00:55:23.585Z,87.73
2022-12-08T00:56:23.675Z,88.36
2022-12-08T00:57:23.511Z,88.04
2022-12-08T00:58:23.466Z,87.84
2022-12-08T00:59:23.494Z,87.73
2022-12-08T01:00:34.313Z,87.88
2022-12-08T01:01:23.431Z,88.61
2022-12-08T01:02:23.420Z,89.13
2022-12-08T01:03:23.357Z,89.30
2022-12-08T01:04:23.600Z,89.40
2022-12-08T01:05:23.297Z,89.61
2022-12-08T01:06:23.554Z,89.45
2022-12-08T01:07:23.296Z,89.76
2022-12-08T01:08:23.456Z,89.86
2022-12-08T01:09:23.282Z,90.08
2022-12-08T01:10:23.437Z,89.93
2022-12-08T01:11:23.231Z,88.99
2022-12-08T01:12:23.400Z,89.03
2022-12-08T01:13:23.217Z,89.40
2022-12-08T01:14:23.406Z,89.51
2022-12-08T01:15:23.206Z,89.51
2022-12-08T01:16:23.481Z,88.99
2022-12-08T01:17:23.155Z,89.30
2022-12-08T01:18:23.245Z,89.09
2022-12-08T01:19:23.327Z,88.88
2022-12-08T01:20:23.177Z,88.99
2022-12-08T01:21:23.381Z,88.57
2022-12-08T01:22:23.156Z,88.67
2022-12-08T01:23:23.146Z,88.57
2022-12-08T01:24:23.129Z,88.57
2022-12-08T01:25:23.199Z,87.94
2022-12-08T01:26:23.062Z,87.63
2022-12-08T01:27:23.184Z,87.42
2022-12-08T01:28:23.051Z,87.56
2022-12-08T01:29:23.094Z,87.46
2022-12-08T01:30:23.047Z,87.77
2022-12-08T01:31:23.261Z,88.29
2022-12-08T01:32:23.032Z,88.09
2022-12-08T01:33:23.131Z,88.61
2022-12-08T01:34:22.951Z,88.92
2022-12-08T01:35:23.080Z,88.92
2022-12-08T01:36:22.939Z,89.34
2022-12-08T01:37:23.046Z,89.09
2022-12-08T01:38:22.928Z,88.92
2022-12-08T01:39:22.961Z,89.03
2022-12-08T01:40:22.926Z,89.03
2022-12-08T01:41:22.969Z,89.23
2022-12-08T01:42:22.870Z,89.34
2022-12-08T01:43:23.034Z,88.92
2022-12-08T01:44:22.828Z,88.29
2022-12-08T01:45:22.893Z,88.19
2022-12-08T01:46:22.834Z,88.29
2022-12-08T01:47:22.908Z,88.40
2022-12-08T01:48:22.884Z,88.61
2022-12-08T01:49:22.929Z,88.50
2022-12-08T01:50:22.780Z,88.40
2022-12-08T01:51:22.836Z,88.65
2022-12-08T01:52:22.777Z,88.34
2022-12-08T01:53:22.964Z,88.65
2022-12-08T01:54:22.755Z,87.71
2022-12-08T01:55:22.762Z,87.60
2022-12-08T01:56:22.685Z,87.81
2022-12-08T01:57:22.772Z,88.23
2022-12-08T01:58:22.702Z,88.12
2022-12-08T01:59:22.792Z,88.54
2022-12-08T02:00:22.650Z,88.44
2022-12-08T02:01:22.860Z,88.54
2022-12-08T02:02:22.716Z,88.65
2022-12-08T02:03:22.818Z,88.65
2022-12-08T02:04:22.625Z,88.79
2022-12-08T02:05:22.613Z,88.86
2022-12-08T02:06:22.570Z,89.17
2022-12-08T02:07:22.646Z,89.38
2022-12-08T02:08:22.610Z,88.65
2022-12-08T02:09:22.656Z,88.75
2022-12-08T02:10:22.558Z,88.12
2022-12-08T02:11:22.681Z,88.44
2022-12-08T02:12:22.501Z,88.34
2022-12-08T02:13:22.585Z,88.44
2022-12-08T02:14:22.475Z,88.06
2022-12-08T02:15:22.601Z,88.17
2022-12-08T02:16:22.519Z,88.17
2022-12-08T02:17:22.512Z,88.69
2022-12-08T02:18:22.426Z,87.96
2022-12-08T02:19:30.642Z,87.74
2022-12-08T02:20:22.408Z,87.54
2022-12-08T02:21:22.425Z,87.89
2022-12-08T02:22:22.393Z,88.73
2022-12-08T02:23:22.448Z,88.94
2022-12-08T02:24:22.361Z,89.47
2022-12-08T02:25:22.522Z,89.36
2022-12-08T02:26:22.312Z,89.25
2022-12-08T02:27:22.422Z,89.25
2022-12-08T02:28:22.320Z,89.88
2022-12-08T02:29:22.396Z,89.98
2022-12-08T02:30:22.280Z,89.57
2022-12-08T02:31:22.509Z,89.57
2022-12-08T02:32:22.421Z,89.67
2022-12-08T02:33:22.239Z,89.88
2022-12-08T02:34:22.320Z,88.31
2022-12-08T02:35:22.187Z,88.62
2022-12-08T02:36:22.340Z,88.84
2022-12-08T02:37:22.216Z,88.62
2022-12-08T02:38:22.260Z,88.35
2022-12-08T02:39:22.135Z,89.50
2022-12-08T02:40:22.376Z,89.29
2022-12-08T02:41:22.118Z,89.29
2022-12-08T02:42:22.376Z,89.50
2022-12-08T02:43:22.122Z,89.82
2022-12-08T02:44:22.200Z,90.66
2022-12-08T02:45:22.061Z,90.13
2022-12-08T02:46:22.320Z,88.56
2022-12-08T02:47:22.038Z,89.09
2022-12-08T02:48:22.223Z,88.46
2022-12-08T02:49:22.038Z,88.67
2022-12-08T02:50:22.250Z,89.61
2022-12-08T02:51:21.985Z,89.92
2022-12-08T02:52:22.161Z,89.92
2022-12-08T02:53:22.137Z,89.92
2022-12-08T02:54:21.966Z,89.82
2022-12-08T02:55:22.209Z,89.92
2022-12-08T02:56:21.964Z,89.92
2022-12-08T02:57:22.172Z,90.03
2022-12-08T02:58:21.926Z,90.03
2022-12-08T02:59:21.980Z,90.38
2022-12-08T03:00:21.942Z,90.70
2022-12-08T03:01:22.025Z,90.91
2022-12-08T03:02:21.986Z,91.01
2022-12-08T03:03:22.010Z,91.33
2022-12-08T03:04:21.855Z,91.33
2022-12-08T03:05:21.905Z,91.18
2022-12-08T03:06:21.903Z,91.12
2022-12-08T03:07:21.939Z,91.01
2022-12-08T03:08:21.912Z,91.12
2022-12-08T03:09:21.852Z,91.22
2022-12-08T03:10:21.758Z,91.08
2022-12-08T03:11:21.896Z,91.12
2022-12-08T03:12:21.772Z,91.01
2022-12-08T03:13:21.880Z,91.01
2022-12-08T03:14:21.712Z,91.01
2022-12-08T03:15:21.781Z,90.97
2022-12-08T03:16:21.804Z,91.01
2022-12-08T03:17:21.795Z,90.59
2022-12-08T03:18:21.697Z,90.13
2022-12-08T03:19:21.703Z,90.23
2022-12-08T03:20:21.652Z,90.38
2022-12-08T03:21:21.817Z,90.34
2022-12-08T03:22:21.620Z,90.28
2022-12-08T03:23:21.880Z,90.28
2022-12-08T03:24:21.863Z,90.28
2022-12-08T03:25:21.578Z,90.38
2022-12-08T03:26:21.670Z,90.59
2022-12-08T03:27:21.553Z,90.80
2022-12-08T03:28:21.680Z,91.01
2022-12-08T03:29:21.541Z,91.12
2022-12-08T03:30:21.815Z,91.01
2022-12-08T03:31:21.580Z,91.01
2022-12-08T03:32:21.619Z,91.01
2022-12-08T03:33:21.491Z,91.01
2022-12-08T03:34:21.735Z,91.12
2022-12-08T03:35:21.441Z,91.12
2022-12-08T03:36:21.542Z,91.12
2022-12-08T03:37:21.407Z,90.91
2022-12-08T03:38:21.551Z,91.01
2022-12-08T03:39:21.433Z,91.22
2022-12-08T03:40:21.563Z,91.33
2022-12-08T03:41:21.361Z,91.33
2022-12-08T03:42:21.480Z,91.43
2022-12-08T03:43:21.344Z,91.28
2022-12-08T03:44:21.533Z,91.28
2022-12-08T03:45:21.439Z,91.28
2022-12-08T03:46:56.276Z,91.43
2022-12-08T03:47:57.100Z,91.50
2022-12-08T03:48:57.257Z,91.50
2022-12-08T03:49:57.102Z,91.50
2022-12-08T03:50:57.278Z,90.45
2022-12-08T03:51:57.068Z,90.28
2022-12-08T03:52:57.297Z,90.49
2022-12-08T03:53:57.017Z,90.91
2022-12-08T03:54:57.297Z,90.91
2022-12-08T03:55:57.023Z,90.91
2022-12-08T03:56:57.144Z,91.12
2022-12-08T03:57:56.980Z,91.01
2022-12-08T03:58:57.130Z,90.70
2022-12-08T03:59:56.949Z,90.49
2022-12-08T04:00:57.183Z,90.17
2022-12-08T04:01:56.989Z,90.07
2022-12-08T04:02:57.219Z,90.38
2022-12-08T04:03:56.912Z,90.38
2022-12-08T04:04:57.165Z,89.97
2022-12-08T04:05:56.968Z,89.65
2022-12-08T04:06:56.931Z,89.02
2022-12-08T04:07:57.101Z,89.34
2022-12-08T04:08:56.862Z,89.75
2022-12-08T04:09:57.022Z,89.75
2022-12-08T04:10:56.842Z,89.97
2022-12-08T04:11:57.038Z,89.86
2022-12-08T04:12:56.816Z,90.07
2022-12-08T04:13:56.996Z,89.75
2022-12-08T04:14:56.804Z,89.44
2022-12-08T04:15:56.955Z,87.97
2022-12-08T04:16:56.807Z,87.66
2022-12-08T04:17:56.938Z,88.92
2022-12-08T04:18:56.748Z,89.23
2022-12-08T04:19:56.958Z,88.18
2022-12-08T04:20:56.730Z,88.49
2022-12-08T04:21:56.960Z,89.34
2022-12-08T04:22:56.725Z,89.75
2022-12-08T04:24:01.110Z,89.34
2022-12-08T04:24:56.681Z,89.02
2022-12-08T04:25:56.799Z,88.71
2022-12-08T04:26:56.661Z,88.07
2022-12-08T04:27:56.852Z,88.39
2022-12-08T04:28:56.672Z,88.43
2022-12-08T04:29:56.822Z,88.43
2022-12-08T04:30:56.659Z,88.22
2022-12-08T04:31:56.884Z,87.80
2022-12-08T04:32:56.572Z,87.95
2022-12-08T04:33:56.687Z,87.84
2022-12-08T04:34:56.563Z,88.05
2022-12-08T04:35:56.660Z,88.47
2022-12-08T04:36:56.682Z,88.57
2022-12-08T04:37:56.496Z,88.82
2022-12-08T04:38:56.598Z,89.25
2022-12-08T04:39:56.491Z,88.51
2022-12-08T04:40:56.597Z,88.41
2022-12-08T04:41:56.470Z,88.93
2022-12-08T04:42:56.612Z,89.56
2022-12-08T04:43:56.442Z,90.19
2022-12-08T04:44:56.522Z,90.92
2022-12-08T04:45:56.384Z,91.03
2022-12-08T04:46:56.553Z,90.72
2022-12-08T04:47:56.392Z,90.89
2022-12-08T04:48:56.568Z,90.99
2022-12-08T04:49:56.833Z,91.20
2022-12-08T04:50:56.641Z,91.30
2022-12-08T04:51:56.477Z,91.09
2022-12-08T04:52:56.588Z,90.53
2022-12-08T04:53:56.340Z,90.00
2022-12-08T04:54:56.780Z,89.27
2022-12-08T04:55:56.317Z,89.69
2022-12-08T04:56:56.297Z,89.69
2022-12-08T04:57:56.256Z,89.62
2022-12-08T04:58:56.318Z,90.15
2022-12-08T04:59:56.227Z,90.78
2022-12-08T05:00:56.399Z,91.35
2022-12-08T05:01:56.343Z,92.08
2022-12-08T05:02:56.408Z,92.92
2022-12-08T05:03:56.198Z,93.44
2022-12-08T05:04:56.262Z,93.55
2022-12-08T05:05:56.163Z,93.02
2022-12-08T05:06:56.276Z,92.04
2022-12-08T05:07:56.247Z,91.62
2022-12-08T05:08:56.341Z,91.20
2022-12-08T05:09:56.127Z,90.47
2022-12-08T05:10:56.297Z,89.62
2022-12-08T05:11:56.197Z,89.42
2022-12-08T05:12:56.314Z,89.31
2022-12-08T05:13:56.061Z,89.84
2022-12-08T05:14:56.140Z,89.84
2022-12-08T05:15:56.085Z,89.94
2022-12-08T05:16:56.142Z,89.94
2022-12-08T05:17:56.048Z,90.30
2022-12-08T05:18:56.200Z,90.92
2022-12-08T05:19:55.982Z,91.24
2022-12-08T05:20:56.167Z,91.09
2022-12-08T05:21:55.991Z,90.89
2022-12-08T05:22:56.029Z,90.57
2022-12-08T05:23:55.926Z,90.47
2022-12-08T05:24:56.574Z,90.36
2022-12-08T05:25:56.150Z,89.59
2022-12-08T05:26:56.109Z,89.52
2022-12-08T05:28:17.572Z,90.36
2022-12-08T05:28:55.934Z,90.57
2022-12-08T05:29:55.855Z,90.25
2022-12-08T05:30:55.925Z,90.09
2022-12-08T05:31:55.907Z,90.30
2022-12-08T05:32:56.139Z,90.72
2022-12-08T05:34:01.044Z,91.18
2022-12-08T05:34:56.326Z,91.39
2022-12-08T05:35:56.561Z,91.60
2022-12-08T05:36:56.955Z,91.39
2022-12-08T05:37:56.078Z,91.49
2022-12-08T05:38:55.859Z,91.71
2022-12-08T05:39:57.054Z,91.91
2022-12-08T05:40:56.020Z,92.06
2022-12-08T05:41:56.392Z,92.80
2022-12-08T05:42:56.165Z,93.11
2022-12-08T05:43:56.664Z,93.43
2022-12-08T05:44:56.032Z,93.74
2022-12-08T05:45:56.075Z,94.06
2022-12-08T05:46:55.669Z,93.80
2022-12-08T05:47:55.730Z,93.70
2022-12-08T05:48:55.679Z,93.28
2022-12-08T05:49:55.789Z,92.65
2022-12-08T05:50:55.645Z,92.54
2022-12-08T05:51:55.805Z,91.81
2022-12-08T05:52:55.606Z,91.07
2022-12-08T05:53:55.978Z,90.86
2022-12-08T05:54:55.689Z,91.07
2022-12-08T05:55:55.572Z,91.18
2022-12-08T05:56:55.764Z,91.24
2022-12-08T05:57:55.497Z,91.14
2022-12-08T05:58:55.616Z,90.51
2022-12-08T05:59:55.802Z,90.30
2022-12-08T06:00:55.555Z,89.98
2022-12-08T06:01:55.582Z,89.94
2022-12-08T06:02:55.620Z,89.94
2022-12-08T06:03:55.537Z,89.84
2022-12-08T06:04:55.450Z,89.62
2022-12-08T06:05:55.572Z,90.05
2022-12-08T06:06:55.764Z,90.15
2022-12-08T06:07:55.739Z,90.22
2022-12-08T06:08:55.413Z,89.90
2022-12-08T06:09:55.511Z,89.59
2022-12-08T06:10:55.375Z,89.27
2022-12-08T06:11:55.597Z,88.96
2022-12-08T06:12:55.356Z,88.96
2022-12-08T06:13:55.504Z,88.75
2022-12-08T06:14:55.336Z,89.10
2022-12-08T06:15:55.516Z,89.84
2022-12-08T06:16:55.385Z,89.52
2022-12-08T06:17:55.378Z,89.21
2022-12-08T06:18:55.282Z,89.10
2022-12-08T06:19:55.330Z,89.25
2022-12-08T06:20:55.380Z,89.14
2022-12-08T06:23:06.220Z,89.81
2022-12-08T06:24:06.824Z,90.12
2022-12-08T06:25:09.847Z,90.59
2022-12-08T06:26:06.810Z,90.91
2022-12-08T06:27:06.576Z,91.11
2022-12-08T06:28:06.835Z,91.33
2022-12-08T06:29:06.546Z,91.58
2022-12-08T06:30:07.042Z,91.68
2022-12-08T06:31:06.553Z,92.31
2022-12-08T06:32:06.660Z,92.42
2022-12-08T06:33:07.254Z,92.73
2022-12-08T06:34:06.607Z,92.84
2022-12-08T06:35:06.699Z,93.05
2022-12-08T06:36:06.516Z,93.26
2022-12-08T06:37:06.528Z,93.47
2022-12-08T06:38:06.510Z,93.37
2022-12-08T06:39:07.600Z,92.94
2022-12-08T06:40:06.618Z,92.42
2022-12-08T06:41:06.557Z,91.78
2022-12-08T06:42:06.463Z,91.78
2022-12-08T06:43:06.707Z,91.36
2022-12-08T06:44:06.494Z,90.84
2022-12-08T06:45:06.604Z,90.42
2022-12-08T06:46:06.485Z,90.53
2022-12-08T06:47:06.417Z,90.53
2022-12-08T06:48:06.332Z,90.21
2022-12-08T06:49:06.458Z,90.48
2022-12-08T06:50:07.310Z,90.17
2022-12-08T06:51:06.953Z,90.27
2022-12-08T06:52:06.434Z,90.59
2022-12-08T06:53:06.254Z,90.06
2022-12-08T06:54:06.404Z,89.64
2022-12-08T06:55:06.229Z,89.96
2022-12-08T06:56:06.513Z,90.06
2022-12-08T06:57:06.197Z,89.75
2022-12-08T06:58:06.343Z,89.01
2022-12-08T06:59:06.392Z,88.80
2022-12-08T07:00:06.672Z,89.64
2022-12-08T07:01:06.252Z,90.17
2022-12-08T07:02:06.553Z,90.17
2022-12-08T07:03:06.177Z,90.27
2022-12-08T07:04:06.302Z,90.17
2022-12-08T07:05:06.105Z,90.59
2022-12-08T07:06:06.260Z,91.22
2022-12-08T07:07:06.089Z,91.64
2022-12-08T07:08:06.315Z,91.74
2022-12-08T07:09:06.056Z,91.85
2022-12-08T07:10:06.581Z,91.74
2022-12-08T07:11:06.031Z,91.64
2022-12-08T07:12:06.167Z,91.53
2022-12-08T07:13:06.037Z,91.11
2022-12-08T07:14:06.101Z,90.91
2022-12-08T07:15:06.020Z,91.01
2022-12-08T07:16:06.105Z,91.01
2022-12-08T07:17:06.221Z,91.01
2022-12-08T07:18:06.243Z,90.80
2022-12-08T07:19:05.930Z,90.38
2022-12-08T07:20:06.623Z,90.59
2022-12-08T07:21:05.919Z,91.11
2022-12-08T07:22:06.071Z,91.01
2022-12-08T07:23:05.925Z,90.91
2022-12-08T07:24:05.960Z,90.69
2022-12-08T07:25:06.004Z,90.48
2022-12-08T07:26:06.367Z,90.59
2022-12-08T07:27:05.872Z,90.34
2022-12-08T07:28:05.972Z,90.27
2022-12-08T07:29:05.848Z,90.27
2022-12-08T07:30:06.228Z,90.38
2022-12-08T07:31:06.143Z,90.34
2022-12-08T07:32:05.896Z,89.92
2022-12-08T07:33:06.037Z,90.02
2022-12-08T07:34:06.422Z,90.34
2022-12-08T07:35:05.766Z,90.23
2022-12-08T07:36:05.835Z,89.60
2022-12-08T07:37:05.744Z,89.81
2022-12-08T07:38:05.843Z,90.02
2022-12-08T07:39:05.843Z,90.34
2022-12-08T07:40:06.057Z,90.44
2022-12-08T07:41:05.847Z,89.92
2022-12-08T07:42:05.746Z,89.81
2022-12-08T07:43:05.845Z,89.81
2022-12-08T07:44:05.734Z,90.02
2022-12-08T07:45:13.418Z,90.23
2022-12-08T07:46:05.805Z,90.44
2022-12-08T07:47:05.845Z,90.66
2022-12-08T07:48:05.730Z,90.76
2022-12-08T07:49:05.845Z,90.76
2022-12-08T07:50:05.916Z,90.55
2022-12-08T07:51:05.831Z,90.44
2022-12-08T07:52:06.158Z,90.55
2022-12-08T07:53:05.982Z,90.44
2022-12-08T07:54:05.905Z,90.66
2022-12-08T07:55:05.817Z,90.76
2022-12-08T07:56:05.593Z,90.76
2022-12-08T07:57:06.796Z,90.76
2022-12-08T07:58:05.552Z,90.55
2022-12-08T07:59:06.373Z,90.34
2022-12-08T08:00:05.980Z,89.71
2022-12-08T08:01:06.264Z,89.81
2022-12-08T08:02:23.462Z,89.39
2022-12-08T08:03:06.437Z,88.87
2022-12-08T08:04:05.642Z,88.34
2022-12-08T08:05:06.472Z,88.51
2022-12-08T08:06:05.724Z,88.87
2022-12-08T08:07:05.731Z,88.93
2022-12-08T08:08:05.705Z,89.04
2022-12-08T08:09:06.184Z,89.14
2022-12-08T08:10:06.571Z,89.56
2022-12-08T08:11:15.802Z,89.73
2022-12-08T08:12:30.163Z,89.52
2022-12-08T08:13:05.716Z,89.52
2022-12-08T08:14:05.562Z,89.73
2022-12-08T08:15:07.257Z,89.84
2022-12-08T08:16:06.203Z,90.47
2022-12-08T08:17:06.095Z,90.67
2022-12-08T08:18:05.878Z,90.36
2022-12-08T08:19:05.955Z,90.15
2022-12-08T08:20:06.206Z,89.69
2022-12-08T08:21:22.155Z,88.96
2022-12-08T08:22:06.103Z,89.17
2022-12-08T08:23:05.715Z,89.48
2022-12-08T08:24:06.409Z,89.06
2022-12-08T08:25:05.387Z,88.43
2022-12-08T08:26:05.425Z,88.54
2022-12-08T08:27:06.183Z,88.64
2022-12-08T08:28:05.538Z,89.02
2022-12-08T08:29:05.429Z,88.92
2022-12-08T08:30:06.621Z,89.02
2022-12-08T08:31:06.137Z,89.23
2022-12-08T08:32:06.183Z,89.12
2022-12-08T08:33:05.934Z,89.50
2022-12-08T08:34:05.291Z,88.77
2022-12-08T08:35:05.344Z,88.87
2022-12-08T08:36:05.381Z,88.98
2022-12-08T08:37:06.086Z,88.73
2022-12-08T08:38:05.289Z,88.62
2022-12-08T08:39:05.280Z,88.73
2022-12-08T08:40:06.003Z,88.84
2022-12-08T08:41:05.225Z,89.15
2022-12-08T08:42:05.002Z,88.79
2022-12-08T08:43:05.096Z,88.06
2022-12-08T08:44:05.036Z,87.64
2022-12-08T08:45:05.095Z,87.64
2022-12-08T08:46:05.289Z,87.43
2022-12-08T08:47:05.011Z,87.92
2022-12-08T08:48:04.908Z,87.50
2022-12-08T08:49:05.026Z,86.87
2022-12-08T08:50:05.296Z,87.18
2022-12-08T08:51:05.024Z,87.50
2022-12-08T08:52:05.475Z,87.15
2022-12-08T08:53:05.826Z,86.62
2022-12-08T08:54:05.039Z,86.10
2022-12-08T08:55:04.968Z,86.52
2022-12-08T08:56:04.914Z,86.90
2022-12-08T08:57:04.992Z,87.10
2022-12-08T08:58:04.760Z,85.64
2022-12-08T08:59:05.098Z,86.23
2022-12-08T09:00:05.114Z,86.02
2022-12-08T09:01:05.049Z,84.77
2022-12-08T09:02:04.894Z,84.73
2022-12-08T09:03:05.728Z,84.83
2022-12-08T09:04:04.999Z,84.58
2022-12-08T09:05:04.714Z,84.27
2022-12-08T09:06:04.886Z,83.85
2022-12-08T09:07:04.851Z,83.33
2022-12-08T09:08:04.844Z,83.12
2022-12-08T09:09:04.747Z,83.01
2022-12-08T09:10:04.896Z,82.60
2022-12-08T09:11:04.777Z,83.01
2022-12-08T09:12:04.560Z,82.81
2022-12-08T09:13:05.424Z,83.64
2022-12-08T09:14:05.172Z,83.81
2022-12-08T09:15:04.878Z,83.81
2022-12-08T09:16:04.900Z,83.67
2022-12-08T09:17:04.808Z,82.94
2022-12-08T09:18:05.356Z,81.96
2022-12-08T09:19:04.775Z,81.09
2022-12-08T09:20:05.028Z,80.57
2022-12-08T09:21:04.758Z,76.02
2022-12-08T09:22:04.485Z,73.60
2022-12-08T09:23:04.846Z,73.70
2022-12-08T09:24:04.840Z,72.86
2022-12-08T09:25:05.007Z,72.86
2022-12-08T09:26:04.618Z,71.80
2022-12-08T09:27:04.808Z,67.60
2022-12-08T09:28:05.089Z,64.51
2022-12-08T09:29:04.609Z,62.17
2022-12-08T09:30:04.954Z,62.72
2022-12-08T09:31:04.779Z,63.03
2022-12-08T09:32:04.593Z,63.78
2022-12-08T09:33:04.338Z,63.79
2022-12-08T09:34:04.582Z,66.72
2022-12-08T09:35:04.281Z,69.34
2022-12-08T09:36:36.197Z,71.31
2022-12-08T09:37:04.438Z,69.69
2022-12-08T09:38:04.521Z,69.01
2022-12-08T09:39:04.754Z,66.46
2022-12-08T09:40:04.926Z,64.02
2022-12-08T09:41:04.260Z,62.38
2022-12-08T09:42:04.403Z,61.05
2022-12-08T09:43:04.217Z,58.01
2022-12-08T09:44:04.370Z,56.62
2022-12-08T09:45:04.177Z,54.92
2022-12-08T09:46:04.579Z,54.02
2022-12-08T09:47:04.244Z,52.41
2022-12-08T09:48:04.422Z,50.62
2022-12-08T09:49:04.315Z,48.82
2022-12-08T09:50:04.730Z,45.20
2022-12-08T09:51:04.369Z,44.14
2022-12-08T09:52:04.067Z,43.30
2022-12-08T09:53:04.294Z,41.96
2022-12-08T09:54:04.315Z,42.16
2022-12-08T09:55:04.258Z,42.47
2022-12-08T09:56:04.012Z,42.21
2022-12-08T09:57:04.279Z,40.47
2022-12-08T09:58:04.083Z,38.77
2022-12-08T09:59:04.328Z,36.43
2022-12-08T10:00:04.226Z,37.05
2022-12-08T10:01:04.108Z,37.03
2022-12-08T10:02:04.074Z,35.24
2022-12-08T10:03:04.146Z,34.57
2022-12-08T10:04:04.231Z,35.24
2022-12-08T10:05:04.327Z,36.85
2022-12-08T10:06:04.030Z,35.66
2022-12-08T10:07:05.587Z,33.43
2022-12-08T10:08:04.518Z,33.07
2022-12-08T10:09:04.182Z,31.67
2022-12-08T10:10:04.361Z,32.04
2022-12-08T10:11:04.282Z,31.30
2022-12-08T10:12:04.077Z,30.70
2022-12-08T10:13:04.188Z,31.45
2022-12-08T10:14:03.884Z,32.20
2022-12-08T10:15:03.952Z,33.76
2022-12-08T10:16:03.867Z,34.89
2022-12-08T10:17:04.120Z,34.75
2022-12-08T10:18:03.784Z,35.78
2022-12-08T10:19:04.102Z,35.19
2022-12-08T10:20:04.201Z,37.32
2022-12-08T10:21:04.104Z,37.08
2022-12-08T10:22:04.196Z,35.06
2022-12-08T10:23:03.760Z,37.08
2022-12-08T10:24:03.679Z,40.83
2022-12-08T10:25:04.291Z,43.57
2022-12-08T10:26:03.840Z,45.39
2022-12-08T10:27:04.138Z,46.50
2022-12-08T10:28:04.166Z,48.66
2022-12-08T10:29:05.779Z,47.91
2022-12-08T10:30:04.193Z,45.23
2022-12-08T10:31:05.023Z,45.12
2022-12-08T10:32:04.948Z,44.17
2022-12-08T10:33:03.982Z,42.49
2022-12-08T10:34:04.061Z,42.79
2022-12-08T10:35:04.935Z,43.20
2022-12-08T10:36:04.366Z,42.55
2022-12-08T10:37:03.716Z,40.68
2022-12-08T10:38:03.920Z,39.82
2022-12-08T10:39:03.710Z,42.81
2022-12-08T10:40:04.703Z,45.10
2022-12-08T10:41:04.284Z,47.12
2022-12-08T10:42:04.490Z,51.65
2022-12-08T10:43:07.845Z,55.77
2022-12-08T10:44:04.245Z,56.90
2022-12-08T10:45:04.510Z,57.14
2022-12-08T10:46:04.705Z,57.29
2022-12-08T10:47:04.202Z,53.74
2022-12-08T10:48:04.243Z,51.32
2022-12-08T10:49:03.906Z,51.71
2022-12-08T10:50:03.782Z,50.74
2022-12-08T10:51:03.616Z,49.26
2022-12-08T10:52:03.403Z,47.88
2022-12-08T10:53:03.596Z,47.55
2022-12-08T10:54:03.353Z,45.70
2022-12-08T10:55:03.424Z,44.04
2022-12-08T10:56:03.414Z,43.51
2022-12-08T10:57:03.835Z,43.49
2022-12-08T10:58:03.259Z,43.73
2022-12-08T10:59:03.495Z,44.92
2022-12-08T11:00:04.647Z,47.49
2022-12-08T11:01:03.457Z,49.76
2022-12-08T11:02:03.384Z,51.55
2022-12-08T11:03:03.357Z,52.40
2022-12-08T11:04:03.299Z,51.09
2022-12-08T11:05:04.680Z,50.94
2022-12-08T11:06:10.595Z,48.97
2022-12-08T11:07:03.398Z,48.83
2022-12-08T11:08:03.225Z,52.16
2022-12-08T11:09:03.330Z,54.79
2022-12-08T11:10:03.691Z,56.18
2022-12-08T11:11:03.166Z,58.17
2022-12-08T11:12:03.049Z,58.17
2022-12-08T11:13:03.239Z,58.12
2022-12-08T11:14:03.025Z,59.91
2022-12-08T11:15:10.059Z,59.78
2022-12-08T11:16:03.134Z,58.72
2022-12-08T11:17:03.432Z,58.40
2022-12-08T11:18:03.010Z,57.11
2022-12-08T11:19:03.117Z,57.14
2022-12-08T11:20:03.624Z,57.37
2022-12-08T11:21:03.141Z,57.81
2022-12-08T11:22:02.982Z,58.04
2022-12-08T11:23:03.668Z,58.44
2022-12-08T11:24:02.857Z,56.60
2022-12-08T11:25:03.072Z,53.02
2022-12-08T11:26:02.886Z,48.22
2022-12-08T11:27:03.063Z,46.37
2022-12-08T11:28:03.115Z,43.44
2022-12-08T11:29:02.906Z,42.08
2022-12-08T11:30:03.651Z,41.27
2022-12-08T11:31:02.900Z,38.29
2022-12-08T11:32:03.385Z,35.02
2022-12-08T11:33:03.219Z,34.03
2022-12-08T11:34:03.184Z,31.42
2022-12-08T11:35:03.432Z,30.11
2022-12-08T11:36:02.787Z,29.92
2022-12-08T11:37:02.747Z,32.05
2022-12-08T11:38:19.845Z,31.51
2022-12-08T11:39:02.919Z,32.61
2022-12-08T11:40:02.974Z,34.11
2022-12-08T11:41:02.838Z,37.05
2022-12-08T11:42:02.654Z,39.71
2022-12-08T11:43:02.880Z,41.77
2022-12-08T11:44:02.837Z,44.71
2022-12-08T11:45:02.958Z,46.96
2022-12-08T11:46:02.716Z,49.86
2022-12-08T11:47:02.649Z,48.63
2022-12-08T11:48:02.684Z,47.85
2022-12-08T11:49:06.286Z,49.74
2022-12-08T11:50:03.093Z,52.76
2022-12-08T11:51:02.568Z,54.69
2022-12-08T11:52:02.758Z,53.20
2022-12-08T11:53:02.586Z,53.61
2022-12-08T11:54:03.750Z,53.87
2022-12-08T11:55:02.781Z,51.66
2022-12-08T11:56:02.634Z,50.63
2022-12-08T11:57:02.554Z,49.43
2022-12-08T11:58:02.629Z,47.71
2022-12-08T11:59:02.468Z,44.81
2022-12-08T12:00:02.847Z,43.61
2022-12-08T12:01:02.462Z,44.45
2022-12-08T12:02:02.888Z,48.04
2022-12-08T12:03:02.640Z,50.37
2022-12-08T12:04:02.584Z,51.24
2022-12-08T12:05:02.455Z,53.04
2022-12-08T12:06:18.260Z,53.06
2022-12-08T12:07:02.569Z,54.04
2022-12-08T12:08:03.148Z,53.45
2022-12-08T12:09:02.607Z,54.09
2022-12-08T12:10:02.692Z,54.74
2022-12-08T12:11:02.526Z,55.38
2022-12-08T12:12:02.301Z,56.24
2022-12-08T12:13:02.585Z,57.71
2022-12-08T12:14:02.293Z,59.50
2022-12-08T12:15:02.513Z,60.46
2022-12-08T12:16:02.547Z,62.84
2022-12-08T12:17:02.419Z,62.45
2022-12-08T12:18:02.404Z,62.04
2022-12-08T12:19:02.231Z,62.06
2022-12-08T12:20:02.816Z,61.96
2022-12-08T12:21:02.159Z,62.30
2022-12-08T12:22:02.463Z,62.33
2022-12-08T12:23:02.174Z,63.40
2022-12-08T12:24:02.419Z,64.43
2022-12-08T12:25:02.142Z,63.71
2022-12-08T12:26:02.458Z,63.92
2022-12-08T12:27:02.221Z,64.09
2022-12-08T12:28:02.417Z,63.92
2022-12-08T12:29:02.086Z,65.06
2022-12-08T12:30:02.199Z,65.16
2022-12-08T12:31:02.121Z,65.58
2022-12-08T12:32:02.200Z,65.37
2022-12-08T12:33:02.104Z,64.64
2022-12-08T12:34:02.206Z,66.02
2022-12-08T12:35:02.015Z,66.20
2022-12-08T12:36:02.208Z,66.02
2022-12-08T12:37:02.082Z,65.50
2022-12-08T12:38:02.031Z,65.08
2022-12-08T12:39:02.124Z,67.37
2022-12-08T12:40:02.159Z,66.02
2022-12-08T12:41:02.031Z,66.88
2022-12-08T12:42:02.010Z,66.99
2022-12-08T12:43:02.053Z,67.50
2022-12-08T12:44:01.986Z,66.57
2022-12-08T12:45:02.114Z,67.50
2022-12-08T12:46:01.995Z,66.25
2022-12-08T12:47:01.983Z,66.57
2022-12-08T12:48:02.927Z,66.15
2022-12-08T12:49:01.862Z,67.30
2022-12-08T12:50:02.459Z,68.33
2022-12-08T12:51:01.873Z,67.09
2022-12-08T12:52:01.923Z,66.05
2022-12-08T12:53:02.104Z,64.90
2022-12-08T12:54:01.929Z,66.78